Time;durP1;ratioP1;P1;durP2;ratioP2;P2;SDS_P1;SDS_P2;PMS_P1;PMS_P2;Temp;Humidity;BMP_temperature;BMP_pressure;BME280_temperature;BME280_humidity;BME280_pressure;Samples;Min_cycle;Max_cycle;Signal;HPM_P1;HPM_P2
2022/11/09 00:01:28;;;;;;;33.20;18.90;;;;;;;4.67;93.81;101798.36;107124;1245;62796;-73
2022/11/09 00:04:01;;;;;;;31.80;18.10;;;;;;;4.81;93.13;101796.38;107230;1241;59598;-74
2022/11/09 00:06:29;;;;;;;;;;;;;;;4.94;92.98;101798.54;107290;1245;59853;-73
2022/11/09 00:08:57;;;;;;;40.90;22.40;;;;;;;5.02;93.02;101793.64;107306;1245;62376;-74
2022/11/09 00:11:31;;;;;;;45.40;22.80;;;;;;;5.12;92.79;101796.63;107243;1245;71323;-72
2022/11/09 00:13:58;;;;;;;45.70;22.40;;;;;;;5.19;92.60;101803.81;107311;1250;70111;-73
2022/11/09 00:16:26;;;;;;;46.40;24.30;;;;;;;5.28;91.96;101800.74;107280;1245;72108;-77
2022/11/09 00:18:54;;;;;;;46.00;24.60;;;;;;;5.37;91.47;101795.79;107330;1249;60779;-75
2022/11/09 00:21:24;;;;;;;49.60;25.50;;;;;;;5.48;90.58;101794.04;107318;1239;58890;-76
2022/11/09 00:23:52;;;;;;;53.90;26.80;;;;;;;5.58;90.24;101791.97;107327;1245;63421;-76
2022/11/09 00:26:20;;;;;;;53.40;27.60;;;;;;;5.68;90.50;101785.73;107310;1246;70334;-75
2022/11/09 00:28:50;;;;;;;49.10;25.50;;;;;;;5.77;90.04;101786.63;107198;1250;69938;-76
2022/11/09 00:31:20;;;;;;;53.30;27.20;;;;;;;5.87;89.61;101786.46;106996;1250;63469;-75
2022/11/09 00:33:56;;;;;;;49.20;25.30;;;;;;;5.99;89.08;101788.83;107169;1244;61763;-77
2022/11/09 00:36:28;;;;;;;52.70;29.60;;;;;;;6.09;89.00;101787.61;107224;1239;59126;-76
2022/11/09 00:38:58;;;;;;;57.30;32.80;;;;;;;6.17;89.71;101782.98;107112;1249;62128;-75
2022/11/09 00:41:27;;;;;;;57.40;31.60;;;;;;;6.19;90.39;101782.55;107193;1241;71389;-78
2022/11/09 00:43:55;;;;;;;57.80;29.30;;;;;;;6.23;90.41;101778.78;107255;1245;60269;-77
2022/11/09 00:46:23;;;;;;;52.60;28.50;;;;;;;6.32;89.76;101778.62;107156;1247;62353;-77
2022/11/09 00:48:54;;;;;;;57.20;31.00;;;;;;;6.40;89.42;101779.54;107016;1242;59025;-77
2022/11/09 00:51:22;;;;;;;55.80;31.20;;;;;;;6.46;89.06;101779.30;107217;1249;60182;-77
2022/11/09 00:53:53;;;;;;;52.30;30.00;;;;;;;6.53;88.29;101779.05;107077;1242;73795;-77
2022/11/09 00:56:21;;;;;;;50.70;29.90;;;;;;;6.60;87.99;101772.85;107099;1239;72363;-76
2022/11/09 00:58:54;;;;;;;53.80;28.50;;;;;;;6.66;88.30;101774.89;107094;1250;68936;-76
2022/11/09 01:01:22;;;;;;;51.10;28.60;;;;;;;6.71;87.51;101772.95;107111;1249;73507;-76
2022/11/09 01:03:49;;;;;;;47.70;27.60;;;;;;;6.75;87.52;101771.44;107102;1248;59095;-77
2022/11/09 01:06:20;;;;;;;47.00;26.60;;;;;;;6.78;87.13;101774.77;107254;1250;61070;-77
2022/11/09 01:08:48;;;;;;;38.50;23.30;;;;;;;6.83;87.29;101774.38;107608;1249;74019;-76
2022/11/09 01:11:18;;;;;;;35.20;19.10;;;;;;;6.87;88.06;101774.41;107521;1245;71607;-78
2022/11/09 01:13:46;;;;;;;35.40;18.80;;;;;;;6.87;89.08;101778.21;107290;1240;70853;-75
2022/11/09 01:16:18;;;;;;;32.60;17.80;;;;;;;6.90;89.01;101777.71;107196;1247;63909;-74
2022/11/09 01:18:46;;;;;;;29.30;16.80;;;;;;;6.94;88.63;101773.41;107204;1246;59078;-75
2022/11/09 01:21:15;;;;;;;31.20;17.80;;;;;;;6.97;88.51;101771.39;107236;1250;61519;-74
2022/11/09 01:23:43;;;;;;;33.40;17.40;;;;;;;7.00;88.59;101767.83;107264;1249;73203;-73
2022/11/09 01:26:14;;;;;;;31.50;18.30;;;;;;;7.00;88.43;101764.17;107321;1240;60627;-72
2022/11/09 01:28:42;;;;;;;39.00;17.80;;;;;;;6.96;88.76;101758.82;107274;1248;69498;-72
2022/11/09 01:31:17;;;;;;;32.70;17.20;;;;;;;6.95;88.56;101756.08;107227;1250;72831;-75
2022/11/09 01:33:45;;;;;;;31.90;17.80;;;;;;;6.91;88.80;101755.88;107243;1249;62471;-75
2022/11/09 01:36:17;;;;;;;34.10;17.60;;;;;;;6.86;89.45;101756.44;107054;1250;59016;-75
2022/11/09 01:38:46;;;;;;;30.70;17.40;;;;;;;6.82;89.58;101758.15;106889;1248;73810;-75
2022/11/09 01:41:21;;;;;;;30.70;16.00;;;;;;;6.79;89.47;101755.84;107226;1246;61878;-76
2022/11/09 01:44:16;;;;;;;27.90;16.30;;;;;;;6.74;89.87;101757.42;107071;1249;59737;-77
2022/11/09 01:47:00;;;;;;;29.10;16.80;;;;;;;6.68;90.20;101754.92;107204;1250;72291;-77
2022/11/09 01:49:42;;;;;;;;;;;;;;;6.63;90.03;101756.11;107238;1245;58995;-77
2022/11/09 01:52:21;;;;;;;30.80;16.30;;;;;;;6.56;90.78;101756.39;107343;1246;58947;-76
2022/11/09 01:54:56;;;;;;;29.70;16.20;;;;;;;6.54;90.77;101754.23;107248;1241;73524;-78
2022/11/09 01:57:30;;;;;;;32.00;15.70;;;;;;;6.49;90.65;101755.98;107265;1243;72353;-73
2022/11/09 02:00:13;;;;;;;33.60;17.30;;;;;;;6.45;90.90;101755.28;107186;1250;71604;-73
2022/11/09 02:02:55;;;;;;;29.30;16.70;;;;;;;6.33;91.35;101745.70;107274;1249;73696;-74
2022/11/09 02:05:30;;;;;;;33.80;16.60;;;;;;;6.34;92.03;101752.07;107440;1244;61516;-71
2022/11/09 02:08:00;;;;;;;32.70;17.20;;;;;;;6.29;91.57;101748.09;107932;1241;62059;-71
2022/11/09 02:10:54;;;;;;;30.80;16.40;;;;;;;6.25;92.27;101751.21;107194;1246;74036;-72
2022/11/09 02:13:24;;;;;;;;;;;;;;;6.21;93.01;101747.71;107461;1241;73637;-73
2022/11/09 02:15:51;;;;;;;34.90;17.90;;;;;;;6.18;92.47;101748.02;107248;1249;59086;-73
2022/11/09 02:18:19;;;;;;;31.80;17.30;;;;;;;6.13;92.36;101742.83;107318;1250;71670;-73
2022/11/09 02:20:53;;;;;;;27.60;15.60;;;;;;;6.08;92.45;101744.05;107417;1235;62740;-73
2022/11/09 02:23:24;;;;;;;32.90;16.90;;;;;;;6.03;92.45;101743.38;107365;1249;57408;-74
2022/11/09 02:25:58;;;;;;;31.50;17.80;;;;;;;5.98;92.53;101745.98;107184;1249;62807;-72
2022/11/09 02:28:27;;;;;;;33.00;17.70;;;;;;;5.95;93.18;101747.13;107387;1246;72059;-73
2022/11/09 02:30:57;;;;;;;29.00;17.10;;;;;;;5.92;93.78;101752.07;107340;1240;70704;-75
2022/11/09 02:33:24;;;;;;;29.00;17.10;;;;;;;5.86;92.93;101753.13;107307;1238;63761;-78
2022/11/09 02:35:52;;;;;;;36.90;17.60;;;;;;;5.79;92.34;101754.91;107407;1246;59089;-73
2022/11/09 02:38:20;;;;;;;30.50;17.70;;;;;;;5.72;91.79;101757.45;107260;1249;60413;-76
2022/11/09 02:40:51;;;;;;;30.00;16.00;;;;;;;5.63;91.25;101760.69;107302;1248;62906;-82
2022/11/09 02:43:19;;;;;;;30.90;16.30;;;;;;;5.55;90.00;101766.84;107340;1245;71413;-80
2022/11/09 02:45:46;;;;;;;31.60;16.60;;;;;;;5.49;90.07;101774.67;107275;1251;70133;-83
2022/11/09 02:48:14;;;;;;;27.90;16.60;;;;;;;5.44;90.88;101776.02;107431;1245;63504;-80
2022/11/09 02:50:42;;;;;;;28.10;16.10;;;;;;;5.44;93.51;101776.39;107401;1245;61212;-77
2022/11/09 02:53:09;;;;;;;30.00;16.20;;;;;;;5.45;93.70;101778.23;107455;1242;58886;-78
2022/11/09 02:55:38;;;;;;;27.90;15.40;;;;;;;5.48;93.71;101779.67;107420;1251;62046;-75
2022/11/09 02:58:06;;;;;;;40.00;19.70;;;;;;;5.52;93.74;101778.33;107422;1249;60702;-78
2022/11/09 03:00:34;;;;;;;41.40;19.80;;;;;;;5.59;93.16;101773.43;107365;1235;71400;-78
2022/11/09 03:03:02;;;;;;;33.90;18.30;;;;;;;5.62;92.72;101770.06;107356;1246;62674;-77
2022/11/09 03:05:29;;;;;;;31.50;17.10;;;;;;;5.67;92.04;101767.14;107326;1251;61981;-77
2022/11/09 03:08:01;;;;;;;29.80;16.90;;;;;;;5.69;92.37;101771.58;107251;1251;59055;-77
2022/11/09 03:10:28;;;;;;;32.00;17.20;;;;;;;5.71;93.01;101769.20;107274;1241;74013;-76
2022/11/09 03:12:56;;;;;;;30.80;17.00;;;;;;;5.73;92.74;101771.58;107285;1242;61999;-77
2022/11/09 03:15:23;;;;;;;31.80;17.80;;;;;;;5.77;92.51;101772.31;107318;1241;69738;-77
2022/11/09 03:17:51;;;;;;;38.60;17.00;;;;;;;5.84;92.03;101775.13;107295;1242;72882;-77
2022/11/09 03:20:18;;;;;;;30.90;16.70;;;;;;;5.91;91.84;101771.83;107323;1238;59106;-75
2022/11/09 03:22:48;;;;;;;33.40;17.20;;;;;;;5.98;91.16;101766.89;107316;1250;58930;-75
2022/11/09 03:25:15;;;;;;;33.20;17.10;;;;;;;6.04;91.04;101766.18;107344;1249;73981;-76
2022/11/09 03:27:43;;;;;;;33.90;17.40;;;;;;;6.09;90.88;101769.27;107278;1246;72343;-76
2022/11/09 03:30:11;;;;;;;32.40;16.50;;;;;;;6.12;90.73;101772.79;107381;1241;60473;-74
2022/11/09 03:32:39;;;;;;;33.90;16.90;;;;;;;6.16;90.44;101774.89;107324;1247;73431;-72
2022/11/09 03:35:08;;;;;;;29.10;16.60;;;;;;;6.21;90.17;101775.73;107340;1239;59065;-72
2022/11/09 03:37:35;;;;;;;29.20;16.70;;;;;;;6.26;89.83;101771.75;107224;1248;60410;-71
2022/11/09 03:40:04;;;;;;;28.00;16.70;;;;;;;6.29;89.94;101767.81;107212;1242;73768;-73
2022/11/09 03:42:32;;;;;;;31.20;16.10;;;;;;;6.28;90.33;101769.23;107248;1241;61841;-72
2022/11/09 03:44:59;;;;;;;28.70;16.30;;;;;;;6.25;90.95;101768.14;107331;1249;59107;-73
2022/11/09 03:47:26;;;;;;;29.70;16.10;;;;;;;6.23;91.26;101768.06;107254;1251;73711;-73
2022/11/09 03:49:53;;;;;;;34.20;16.40;;;;;;;6.23;91.69;101769.26;107300;1245;63269;-74
2022/11/09 03:52:21;;;;;;;30.20;16.30;;;;;;;6.26;91.53;101769.86;107320;1245;60272;-73
2022/11/09 03:54:48;;;;;;;30.40;16.20;;;;;;;6.28;91.59;101768.17;107418;1249;73164;-74
2022/11/09 03:57:16;;;;;;;31.60;17.60;;;;;;;6.32;91.34;101766.33;107756;1245;60964;-74
2022/11/09 03:59:43;;;;;;;31.10;16.50;;;;;;;6.37;91.15;101766.13;107549;1245;59858;-73
2022/11/09 04:02:10;;;;;;;30.60;17.90;;;;;;;6.43;91.12;101763.66;107509;1241;73791;-75
2022/11/09 04:04:38;;;;;;;31.20;16.70;;;;;;;6.49;90.98;101767.96;107372;1249;63654;-75
2022/11/09 04:07:05;;;;;;;31.50;16.10;;;;;;;6.53;90.76;101767.27;107349;1251;59146;-73
2022/11/09 04:09:32;;;;;;;26.80;15.40;;;;;;;6.58;90.49;101766.73;107462;1249;73474;-77
2022/11/09 04:11:59;;;;;;;30.70;16.10;;;;;;;6.59;90.31;101766.70;107383;1245;72605;-75
2022/11/09 04:14:27;;;;;;;28.90;15.20;;;;;;;6.62;90.18;101771.42;107386;1249;60218;-73
2022/11/09 04:16:54;;;;;;;28.00;16.60;;;;;;;6.68;90.29;101776.88;107285;1246;73479;-71
2022/11/09 04:19:22;;;;;;;33.60;17.50;;;;;;;6.72;90.29;101779.34;107270;1246;58865;-71
2022/11/09 04:21:50;;;;;;;31.70;16.50;;;;;;;6.75;90.51;101779.38;107278;1242;59417;-71
2022/11/09 04:24:18;;;;;;;30.70;16.40;;;;;;;6.77;91.17;101781.54;107278;1240;73196;-71
2022/11/09 04:26:47;;;;;;;31.90;16.00;;;;;;;6.80;90.96;101780.73;107317;1246;61955;-71
2022/11/09 04:29:14;;;;;;;30.00;15.10;;;;;;;6.81;90.90;101782.23;107366;1246;60971;-75
2022/11/09 04:31:41;;;;;;;27.90;15.70;;;;;;;6.84;90.75;101781.80;107351;1248;73688;-74
2022/11/09 04:34:08;;;;;;;28.10;15.50;;;;;;;6.88;90.29;101786.29;107376;1251;62415;-74
2022/11/09 04:36:36;;;;;;;33.00;16.20;;;;;;;6.94;90.05;101788.34;107416;1250;57584;-73
2022/11/09 04:39:03;;;;;;;32.70;16.60;;;;;;;6.94;90.06;101787.11;107393;1249;62903;-75
2022/11/09 04:41:30;;;;;;;29.80;16.40;;;;;;;6.94;90.87;101791.63;107328;1241;71476;-75
2022/11/09 04:43:57;;;;;;;30.90;17.20;;;;;;;6.93;90.12;101793.24;107333;1246;70422;-73
2022/11/09 04:46:26;;;;;;;29.70;16.50;;;;;;;6.94;90.27;101794.92;107358;1251;63000;-73
2022/11/09 04:48:54;;;;;;;33.70;17.20;;;;;;;6.95;89.93;101793.99;107419;1246;59170;-74
2022/11/09 04:51:21;;;;;;;32.40;16.50;;;;;;;6.95;90.15;101795.04;107465;1242;59329;-74
2022/11/09 04:53:48;;;;;;;33.70;17.60;;;;;;;7.01;89.71;101797.77;107668;1245;62878;-76
2022/11/09 04:56:15;;;;;;;32.80;18.40;;;;;;;7.02;89.61;101799.42;107649;1249;72436;-77
2022/11/09 04:58:43;;;;;;;31.80;17.40;;;;;;;7.01;89.48;101803.29;107728;1249;69019;-77
2022/11/09 05:01:13;;;;;;;32.60;16.80;;;;;;;7.04;89.18;101805.08;107553;1241;62983;-76
2022/11/09 05:03:41;;;;;;;35.50;17.60;;;;;;;7.02;89.13;101804.97;107473;1251;58955;-78
2022/11/09 05:09:04;;;;;;;37.30;19.20;;;;;;;6.93;89.37;101802.23;107810;1242;73502;-78
2022/11/09 05:11:34;;;;;;;32.60;17.90;;;;;;;6.96;89.20;101805.39;107412;1250;357195;-77
2022/11/09 05:14:02;;;;;;;35.80;18.30;;;;;;;6.93;89.35;101808.62;107620;1249;59757;-78
2022/11/09 05:16:31;;;;;;;36.30;18.70;;;;;;;6.93;89.08;101807.41;107640;1251;62502;-77
2022/11/09 05:18:58;;;;;;;33.80;18.60;;;;;;;6.92;88.97;101807.11;107828;1242;58976;-80
2022/11/09 05:21:26;;;;;;;30.50;18.70;;;;;;;6.91;89.14;101805.92;107788;1245;62096;-76
2022/11/09 05:23:59;;;;;;;35.90;18.30;;;;;;;6.93;88.76;101807.58;107783;1235;65332;-80
2022/11/09 05:26:32;;;;;;;36.80;19.50;;;;;;;6.93;88.70;101810.52;107584;1246;60777;-76
2022/11/09 05:29:03;;;;;;;35.00;19.40;;;;;;;6.91;88.95;101812.52;107588;1250;69654;-77
2022/11/09 05:31:32;;;;;;;32.10;19.50;;;;;;;6.93;88.51;101813.81;107594;1248;73815;-78
2022/11/09 05:33:59;;;;;;;32.90;18.90;;;;;;;6.90;88.60;101821.71;107616;1245;59082;-77
2022/11/09 05:36:29;;;;;;;34.20;18.50;;;;;;;6.90;88.59;101827.09;107529;1243;58963;-78
2022/11/09 05:38:57;;;;;;;33.20;18.60;;;;;;;6.85;88.56;101829.02;107606;1249;72718;-75
2022/11/09 05:41:25;;;;;;;38.20;19.10;;;;;;;6.83;88.86;101831.17;107815;1249;71115;-71
2022/11/09 05:43:53;;;;;;;32.90;18.50;;;;;;;6.81;89.18;101835.25;107401;1245;68918;-70
2022/11/09 05:46:20;;;;;;;37.10;19.10;;;;;;;6.84;89.13;101838.25;107327;1245;74148;-70
2022/11/09 05:48:48;;;;;;;38.20;19.10;;;;;;;6.83;88.89;101841.56;107335;1249;59173;-69
2022/11/09 05:51:16;;;;;;;38.60;20.30;;;;;;;6.85;89.07;101844.45;107183;1249;60905;-68
2022/11/09 05:53:43;;;;;;;33.20;19.20;;;;;;;6.90;88.76;101845.13;107419;1249;63690;-69
2022/11/09 05:56:15;;;;;;;42.90;19.80;;;;;;;6.91;88.83;101846.29;107309;1241;71689;-70
2022/11/09 05:58:43;;;;;;;33.10;18.40;;;;;;;6.95;88.52;101843.88;107370;1245;69277;-69
2022/11/09 06:01:14;;;;;;;34.50;18.90;;;;;;;7.02;88.22;101851.23;107384;1250;63505;-69
2022/11/09 06:03:42;;;;;;;32.50;18.10;;;;;;;7.09;88.62;101852.85;107410;1251;62891;-72
2022/11/09 06:06:15;;;;;;;32.90;18.20;;;;;;;7.15;88.42;101850.88;107172;1248;62647;-73
2022/11/09 06:08:43;;;;;;;33.10;17.70;;;;;;;7.24;87.57;101854.00;107418;1248;73602;-72
2022/11/09 06:11:12;;;;;;;31.00;18.10;;;;;;;7.27;86.97;101854.21;107438;1249;61900;-72
2022/11/09 06:13:48;;;;;;;35.20;19.00;;;;;;;7.27;86.74;101856.14;107445;1251;59571;-73
2022/11/09 06:16:15;;;;;;;33.20;17.30;;;;;;;7.21;87.21;101855.67;107198;1249;63392;-73
2022/11/09 06:18:42;;;;;;;33.60;18.00;;;;;;;7.13;87.50;101858.92;107319;1249;61862;-73
2022/11/09 06:21:10;;;;;;;34.80;19.00;;;;;;;7.17;87.37;101854.27;107414;1235;58202;-73
2022/11/09 06:23:37;;;;;;;37.20;19.70;;;;;;;7.19;87.21;101852.46;107418;1249;72696;-72
2022/11/09 06:26:08;;;;;;;35.00;19.30;;;;;;;7.22;87.24;101850.95;107427;1242;72744;-74
2022/11/09 06:28:38;;;;;;;37.10;19.10;;;;;;;7.27;87.15;101848.84;107411;1249;60099;-73
2022/11/09 06:31:10;;;;;;;39.60;19.20;;;;;;;7.32;86.65;101846.56;107419;1246;62453;-73
2022/11/09 06:33:37;;;;;;;42.80;19.10;;;;;;;7.36;86.49;101843.46;107427;1245;62925;-72
2022/11/09 06:36:05;;;;;;;35.50;18.20;;;;;;;7.42;86.27;101846.33;107379;1239;59075;-73
2022/11/09 06:38:33;;;;;;;35.00;18.20;;;;;;;7.48;86.01;101842.96;107437;1235;72107;-73
2022/11/09 06:41:00;;;;;;;34.40;18.50;;;;;;;7.49;85.88;101841.53;107370;1251;61955;-74
2022/11/09 06:43:28;;;;;;;33.60;18.60;;;;;;;7.49;85.56;101841.36;107217;1249;69739;-73
2022/11/09 06:45:55;;;;;;;35.70;19.00;;;;;;;7.51;85.51;101835.38;107371;1248;62926;-73
2022/11/09 06:48:23;;;;;;;31.60;17.20;;;;;;;7.58;85.20;101834.39;107356;1246;63276;-74
2022/11/09 06:50:51;;;;;;;37.30;18.30;;;;;;;7.64;85.05;101831.73;107639;1245;61970;-73
2022/11/09 06:53:18;;;;;;;43.40;20.00;;;;;;;7.66;84.94;101831.44;107620;1245;63108;-74
2022/11/09 06:55:47;;;;;;;35.40;20.20;;;;;;;7.69;84.68;101834.78;107502;1246;70120;-72
2022/11/09 06:58:18;;;;;;;34.00;18.20;;;;;;;7.82;84.10;101835.59;107697;1245;71243;-74
2022/11/09 07:00:45;;;;;;;38.20;19.50;;;;;;;7.91;83.37;101837.13;107343;1242;74233;-72
2022/11/09 07:03:17;;;;;;;31.70;18.00;;;;;;;7.92;83.40;101836.39;107241;1246;63307;-73
2022/11/09 07:05:47;;;;;;;36.10;20.20;;;;;;;8.07;83.05;101837.33;107346;1250;60762;-73
2022/11/09 07:08:16;;;;;;;42.50;20.30;;;;;;;8.12;82.48;101837.96;107286;1244;73458;-74
2022/11/09 07:10:44;;;;;;;48.30;23.70;;;;;;;8.17;82.15;101838.41;107258;1247;62757;-73
2022/11/09 07:13:12;;;;;;;42.80;23.70;;;;;;;8.28;81.68;101839.85;107358;1250;69703;-73
2022/11/09 07:15:39;;;;;;;48.50;24.00;;;;;;;8.29;81.62;101839.63;107339;1241;62714;-73
2022/11/09 07:18:11;;;;;;;47.30;24.10;;;;;;;8.41;81.14;101841.55;107388;1250;62075;-74
2022/11/09 07:20:39;;;;;;;43.70;22.30;;;;;;;8.54;80.81;101838.02;107474;1248;60127;-73
2022/11/09 07:23:06;;;;;;;41.40;21.40;;;;;;;8.57;80.24;101830.08;107391;1250;62355;-72
2022/11/09 07:25:33;;;;;;;44.00;22.70;;;;;;;8.61;80.21;101825.16;107398;1239;72128;-73
2022/11/09 07:28:04;;;;;;;34.00;20.00;;;;;;;8.69;79.77;101824.98;107531;1249;60205;-74
2022/11/09 07:30:32;;;;;;;37.70;19.50;;;;;;;8.76;79.71;101821.34;107528;1240;73809;-74
2022/11/09 07:32:59;;;;;;;33.20;19.20;;;;;;;8.90;79.33;101820.36;107357;1249;62421;-75
2022/11/09 07:35:47;;;;;;;38.80;21.10;;;;;;;9.04;79.45;101819.13;107349;1246;60899;-74
2022/11/09 07:38:15;;;;;;;37.80;20.60;;;;;;;9.09;78.12;101820.98;107355;1245;63532;-74
2022/11/09 07:40:43;;;;;;;43.90;20.10;;;;;;;9.14;78.09;101824.39;107333;1241;72082;-75
2022/11/09 07:43:11;;;;;;;30.50;17.80;;;;;;;9.15;77.91;101824.36;107363;1249;61388;-73
2022/11/09 07:45:40;;;;;;;35.50;20.00;;;;;;;9.20;77.51;101824.12;107270;1251;63986;-75
2022/11/09 07:48:10;;;;;;;36.50;20.20;;;;;;;9.29;77.51;101827.14;107348;1248;58976;-75
2022/11/09 07:50:40;;;;;;;29.10;18.90;;;;;;;9.36;77.42;101829.02;107409;1250;59721;-74
2022/11/09 07:53:11;;;;;;;41.70;21.00;;;;;;;9.44;77.68;101825.85;107209;1249;62843;-72
2022/11/09 07:55:38;;;;;;;36.80;18.90;;;;;;;9.45;77.14;101827.57;107341;1249;71052;-73
2022/11/09 07:58:14;;;;;;;38.00;20.80;;;;;;;9.42;77.09;101829.26;107574;1250;59562;-75
2022/11/09 08:00:43;;;;;;;39.40;19.80;;;;;;;9.54;77.08;101828.16;107650;1245;73793;-74
2022/11/09 08:03:10;;;;;;;36.10;21.60;;;;;;;9.61;76.35;101829.91;107473;1244;59049;-74
2022/11/09 08:05:39;;;;;;;38.30;20.90;;;;;;;9.67;76.23;101827.52;107484;1250;60481;-75
2022/11/09 08:08:10;;;;;;;43.10;22.50;;;;;;;9.85;76.06;101828.16;107402;1251;62598;-74
2022/11/09 08:10:38;;;;;;;39.30;21.10;;;;;;;9.89;75.38;101829.52;107519;1245;61462;-73
2022/11/09 08:13:11;;;;;;;40.00;21.30;;;;;;;10.01;74.89;101824.85;107298;1249;69562;-74
2022/11/09 08:15:40;;;;;;;38.90;20.70;;;;;;;10.15;74.96;101824.13;107432;1246;62825;-73
2022/11/09 08:18:13;;;;;;;38.20;19.90;;;;;;;10.31;74.79;101827.17;107681;1242;59017;-75
2022/11/09 08:20:40;;;;;;;;;;;;;;;10.36;74.41;101829.65;107813;1238;58795;-74
2022/11/09 08:23:14;;;;;;;38.30;19.80;;;;;;;10.53;74.23;101830.13;107459;1246;73497;-74
2022/11/09 08:25:43;;;;;;;39.60;21.60;;;;;;;10.57;73.82;101829.06;107727;1247;71741;-74
2022/11/09 08:28:14;;;;;;;35.10;20.70;;;;;;;10.61;73.31;101829.55;107515;1245;60284;-74
2022/11/09 08:30:44;;;;;;;42.00;21.90;;;;;;;10.71;72.82;101829.33;107569;1248;62497;-74
2022/11/09 08:33:13;;;;;;;34.30;17.60;;;;;;;10.85;73.34;101830.83;107583;1240;60396;-74
2022/11/09 08:35:40;;;;;;;34.10;18.70;;;;;;;10.99;72.92;101830.53;107633;1237;59034;-73
2022/11/09 08:38:08;;;;;;;26.90;14.70;;;;;;;10.83;73.55;101835.27;107603;1238;62733;-73
2022/11/09 08:40:35;;;;;;;31.50;16.20;;;;;;;10.61;74.05;101833.00;107645;1243;72103;-75
2022/11/09 08:43:06;;;;;;;24.40;14.20;;;;;;;10.54;74.85;101834.46;107577;1246;70664;-75
2022/11/09 08:45:36;;;;;;;28.60;15.50;;;;;;;10.52;75.03;101836.81;107759;1247;64144;-74
2022/11/09 08:48:05;;;;;;;26.90;15.20;;;;;;;10.49;75.57;101839.59;107575;1238;58809;-74
2022/11/09 08:50:35;;;;;;;21.60;11.70;;;;;;;10.61;75.43;101845.39;107614;1247;59009;-72
2022/11/09 08:53:04;;;;;;;25.70;14.00;;;;;;;10.69;74.91;101846.69;107564;1247;63239;-72
2022/11/09 08:55:35;;;;;;;22.10;11.80;;;;;;;10.57;75.47;101847.70;107657;1243;61450;-72
2022/11/09 08:58:05;;;;;;;21.80;12.60;;;;;;;10.53;75.60;101843.04;107562;1245;59153;-76
2022/11/09 09:00:32;;;;;;;25.90;12.70;;;;;;;10.54;75.58;101841.74;107721;1247;63196;-74
2022/11/09 09:03:04;;;;;;;26.10;12.20;;;;;;;10.47;76.00;101841.80;107479;1242;62858;-73
2022/11/09 09:05:33;;;;;;;16.70;8.70;;;;;;;10.41;76.88;101843.84;107668;1247;58773;-74
2022/11/09 09:08:03;;;;;;;18.70;10.20;;;;;;;10.39;77.15;101842.04;107677;1246;62179;-74
2022/11/09 09:10:31;;;;;;;14.80;8.80;;;;;;;10.35;77.30;101843.28;107458;1238;71426;-74
2022/11/09 09:12:59;;;;;;;20.10;12.20;;;;;;;10.19;78.16;101838.89;107687;1243;70172;-75
2022/11/09 09:15:26;;;;;;;19.80;10.80;;;;;;;10.12;78.64;101837.02;107553;1248;62505;-73
2022/11/09 09:17:53;;;;;;;18.40;9.50;;;;;;;10.05;78.83;101838.23;107484;1247;58992;-74
2022/11/09 09:20:21;;;;;;;19.90;11.00;;;;;;;10.04;79.11;101837.09;107596;1247;58988;-73
2022/11/09 09:22:48;;;;;;;26.50;13.30;;;;;;;9.93;79.68;101840.61;107737;1243;71645;-73
2022/11/09 09:25:16;;;;;;;19.70;11.60;;;;;;;9.96;79.85;101836.12;107460;1245;71531;-73
2022/11/09 09:27:44;;;;;;;19.90;11.50;;;;;;;10.09;79.33;101836.28;107684;1242;60056;-73
2022/11/09 09:30:12;;;;;;;19.10;10.90;;;;;;;10.04;79.75;101833.80;107566;1235;63135;-73
2022/11/09 09:32:39;;;;;;;26.90;13.00;;;;;;;10.03;79.58;101834.53;107652;1247;58940;-72
2022/11/09 09:35:07;;;;;;;18.70;11.90;;;;;;;9.97;79.95;101832.73;107702;1245;61566;-73
2022/11/09 09:37:34;;;;;;;24.00;13.10;;;;;;;10.03;80.01;101823.38;107637;1248;62546;-73
2022/11/09 09:40:02;;;;;;;22.30;12.00;;;;;;;10.25;79.22;101823.29;107588;1243;71957;-73
2022/11/09 09:42:35;;;;;;;24.20;13.50;;;;;;;10.16;79.64;101822.20;107884;1238;60245;-75
2022/11/09 09:45:15;;;;;;;21.40;13.00;;;;;;;10.12;80.04;101822.39;107718;1248;62361;-73
2022/11/09 09:47:59;;;;;;;23.60;13.50;;;;;;;10.34;79.48;101826.48;107800;1242;58865;-73
2022/11/09 09:50:37;;;;;;;22.50;13.30;;;;;;;10.33;79.40;101822.32;107771;1248;60436;-74
2022/11/09 09:53:36;;;;;;;24.20;13.50;;;;;;;10.32;79.86;101819.27;107714;1247;62523;-76
2022/11/09 09:56:27;;;;;;;22.10;13.50;;;;;;;10.45;79.30;101819.07;107281;1247;61503;-73
2022/11/09 09:59:10;;;;;;;27.20;14.00;;;;;;;10.41;79.52;101819.80;107598;1242;59145;-75
2022/11/09 10:01:42;;;;;;;29.30;14.10;;;;;;;10.48;79.59;101816.80;107649;1243;73658;-73
2022/11/09 10:04:20;;;;;;;22.50;11.90;;;;;;;10.37;80.21;101814.13;107634;1242;58946;-74
2022/11/09 10:07:02;;;;;;;28.50;14.40;;;;;;;10.54;79.69;101812.50;107726;1248;58255;-74
2022/11/09 10:10:11;;;;;;;25.00;14.50;;;;;;;10.66;79.25;101811.31;107619;1242;64031;-73
2022/11/09 10:12:51;;;;;;;28.30;14.90;;;;;;;10.76;78.98;101806.94;107681;1243;60735;-76
2022/11/09 10:15:53;;;;;;;27.70;14.50;;;;;;;10.61;79.56;101805.66;107587;1248;59484;-74
2022/11/09 10:18:31;;;;;;;24.70;14.60;;;;;;;10.65;79.50;101800.55;107520;1239;62594;-76
2022/11/09 10:21:36;;;;;;;27.10;14.70;;;;;;;10.50;80.23;101797.74;107553;1248;58436;-76
2022/11/09 10:24:29;;;;;;;26.20;15.10;;;;;;;10.57;80.05;101793.17;107638;1247;57473;-75
2022/11/09 10:27:01;;;;;;;27.40;15.60;;;;;;;10.74;79.49;101789.63;107583;1245;63750;-76
2022/11/09 10:29:44;;;;;;;25.00;16.20;;;;;;;10.86;79.18;101785.26;107570;1247;61217;-75
2022/11/09 10:32:23;;;;;;;28.20;17.10;;;;;;;10.90;79.06;101783.47;107559;1243;59908;-76
2022/11/09 10:35:12;;;;;;;28.50;15.40;;;;;;;10.99;78.64;101782.64;107656;1248;73223;-75
2022/11/09 10:37:53;;;;;;;30.70;16.00;;;;;;;10.99;78.84;101777.94;107636;1248;58301;-75
2022/11/09 10:40:37;;;;;;;27.80;14.50;;;;;;;11.03;78.58;101776.46;107627;1248;61092;-75
2022/11/09 10:43:24;;;;;;;34.00;16.80;;;;;;;10.99;79.11;101776.54;107661;1243;62692;-77
2022/11/09 10:46:10;;;;;;;29.20;16.00;;;;;;;11.00;79.24;101775.27;107584;1247;71121;-76
2022/11/09 10:49:20;;;;;;;32.90;16.40;;;;;;;10.97;79.29;101769.47;107562;1248;60724;-76
2022/11/09 10:52:38;;;;;;;28.90;16.40;;;;;;;11.14;78.82;101762.42;107583;1243;63193;-75
2022/11/09 10:55:35;;;;;;;28.10;16.00;;;;;;;11.25;78.15;101759.15;107644;1246;63285;-73
2022/11/09 10:58:30;;;;;;;33.50;17.70;;;;;;;11.37;77.68;101755.29;107557;1247;59139;-74
2022/11/09 11:01:21;;;;;;;31.00;16.80;;;;;;;11.56;76.79;101745.80;107627;1246;73560;-74
2022/11/09 11:04:25;;;;;;;25.90;15.40;;;;;;;11.53;76.86;101745.11;107565;1240;61522;-75
2022/11/09 11:07:20;;;;;;;28.80;16.40;;;;;;;11.61;76.51;101739.74;107632;1248;59107;-74
2022/11/09 11:10:16;;;;;;;29.20;16.60;;;;;;;11.46;77.08;101739.77;107656;1243;72892;-75
2022/11/09 11:13:05;;;;;;;27.30;14.20;;;;;;;11.26;77.94;101739.95;107666;1248;58933;-76
2022/11/09 11:15:52;;;;;;;30.30;16.80;;;;;;;11.37;77.81;101734.91;107750;1244;59191;-75
2022/11/09 11:18:46;;;;;;;25.30;15.60;;;;;;;11.51;77.28;101727.41;107810;1243;73484;-79
2022/11/09 11:21:35;;;;;;;26.90;16.30;;;;;;;11.43;77.65;101726.36;107595;1248;70464;-74
2022/11/09 11:24:21;;;;;;;28.60;16.60;;;;;;;11.37;77.95;101724.77;107579;1243;59187;-73
2022/11/09 11:27:22;;;;;;;26.80;15.90;;;;;;;11.40;77.59;101723.70;107423;1250;63244;-74
2022/11/09 11:30:35;;;;;;;25.90;15.20;;;;;;;11.31;78.40;101723.93;107498;1241;61203;-73
2022/11/09 11:33:21;;;;;;;33.30;17.40;;;;;;;11.42;78.05;101718.02;107456;1251;60357;-75
2022/11/09 11:36:26;;;;;;;31.40;17.60;;;;;;;11.52;77.65;101713.92;107498;1242;73626;-76